createdAt,value
2022-08-08T00:00:55.782Z,10.55
2022-08-08T00:03:32.208Z,11.93
2022-08-08T00:06:12.118Z,12.43
2022-08-08T00:09:24.939Z,12.98
2022-08-08T00:12:10.314Z,13.02
2022-08-08T00:15:05.022Z,13.07
2022-08-08T00:18:11.051Z,13.65
2022-08-08T00:20:54.955Z,11.23
2022-08-08T00:23:55.189Z,12.30
2022-08-08T00:26:40.952Z,11.27
2022-08-08T00:29:17.240Z,11.50
2022-08-08T00:32:07.846Z,10.82
2022-08-08T00:35:22.174Z,9.70
2022-08-08T00:38:31.263Z,9.52
2022-08-08T00:41:16.437Z,10.02
2022-08-08T00:44:12.631Z,9.82
2022-08-08T00:47:19.440Z,10.45
2022-08-08T00:50:40.699Z,9.43
2022-08-08T00:53:29.425Z,9.75
2022-08-08T00:56:41.632Z,10.43
2022-08-08T00:59:48.496Z,10.55
2022-08-08T01:03:58.547Z,9.82
2022-08-08T01:06:10.801Z,9.40
2022-08-08T01:09:36.159Z,9.90
2022-08-08T01:12:39.172Z,9.65
2022-08-08T01:15:54.154Z,9.02
2022-08-08T01:18:58.180Z,9.10
2022-08-08T01:22:11.838Z,9.45
2022-08-08T01:25:26.447Z,8.45
2022-08-08T01:28:53.952Z,8.68
2022-08-08T01:32:30.348Z,9.07
2022-08-08T01:35:29.672Z,9.45
2022-08-08T01:38:13.096Z,8.70
2022-08-08T01:40:55.510Z,8.32
2022-08-08T01:43:38.835Z,8.95
2022-08-08T01:46:34.107Z,7.88
2022-08-08T01:49:37.823Z,8.55
2022-08-08T01:54:12.169Z,8.20
2022-08-08T01:56:28.109Z,8.32
2022-08-08T01:58:46.968Z,8.10
2022-08-08T02:02:07.254Z,7.80
2022-08-08T02:05:00.570Z,7.93
2022-08-08T02:08:12.212Z,8.02
2022-08-08T02:11:02.417Z,8.10
2022-08-08T02:14:14.950Z,7.75
2022-08-08T02:17:10.562Z,7.97
2022-08-08T02:20:09.457Z,7.57
2022-08-08T02:23:03.022Z,7.72
2022-08-08T02:26:00.653Z,8.18
2022-08-08T02:28:48.610Z,7.70
2022-08-08T02:32:04.902Z,7.85
2022-08-08T02:35:10.319Z,8.73
2022-08-08T02:38:49.231Z,7.35
2022-08-08T02:41:58.866Z,7.88
2022-08-08T02:44:59.453Z,7.03
2022-08-08T02:47:57.245Z,7.20
2022-08-08T02:50:41.325Z,7.05
2022-08-08T02:53:51.176Z,7.20
2022-08-08T02:56:58.851Z,6.82
2022-08-08T03:00:26.389Z,6.28
2022-08-08T03:05:00.418Z,6.30
2022-08-08T03:07:07.041Z,6.13
2022-08-08T03:10:04.150Z,5.78
2022-08-08T03:15:54.489Z,5.35
2022-08-08T03:16:35.955Z,5.65
2022-08-08T03:19:51.409Z,5.63
2022-08-08T03:22:38.833Z,5.30
2022-08-08T03:25:18.433Z,5.03
2022-08-08T03:28:04.719Z,4.70
2022-08-08T03:30:39.677Z,4.85
2022-08-08T03:33:55.815Z,5.25
2022-08-08T03:36:20.028Z,5.22
2022-08-08T03:39:15.198Z,5.68
2022-08-08T03:42:12.745Z,5.10
2022-08-08T03:44:47.933Z,5.40
2022-08-08T03:47:25.698Z,4.55
2022-08-08T03:50:24.791Z,4.65
2022-08-08T03:53:04.005Z,4.68
2022-08-08T03:55:57.751Z,4.05
2022-08-08T03:58:37.312Z,4.57
2022-08-08T04:01:22.906Z,4.20
2022-08-08T04:04:01.810Z,4.53
2022-08-08T04:06:41.708Z,4.60
2022-08-08T04:09:19.187Z,4.13
2022-08-08T04:11:58.692Z,4.28
2022-08-08T04:14:46.679Z,4.47
2022-08-08T04:17:57.964Z,4.10
2022-08-08T04:20:16.077Z,3.65
2022-08-08T04:22:51.435Z,3.72
2022-08-08T04:25:29.744Z,3.75
2022-08-08T04:28:34.974Z,3.38
2022-08-08T04:30:57.579Z,3.58
2022-08-08T04:33:29.654Z,3.72
2022-08-08T04:36:15.201Z,3.58
2022-08-08T04:38:57.286Z,3.85
2022-08-08T04:41:40.206Z,4.18
2022-08-08T04:44:12.570Z,3.90
2022-08-08T04:46:44.944Z,3.42
2022-08-08T04:49:18.669Z,3.72
2022-08-08T04:51:57.088Z,3.78
2022-08-08T04:54:41.864Z,3.40
2022-08-08T04:57:15.136Z,3.80
2022-08-08T04:59:48.198Z,3.75
2022-08-08T05:02:31.354Z,3.53
2022-08-08T05:05:03.932Z,3.45
2022-08-08T05:07:42.887Z,3.67
2022-08-08T05:10:17.118Z,3.60
2022-08-08T05:12:59.969Z,3.78
2022-08-08T05:16:55.154Z,3.70
2022-08-08T05:18:28.495Z,3.40
2022-08-08T05:21:00.179Z,3.28
2022-08-08T05:23:41.325Z,3.40
2022-08-08T05:26:19.649Z,3.63
2022-08-08T05:28:57.118Z,3.80
2022-08-08T05:32:04.690Z,4.03
2022-08-08T05:34:44.214Z,4.10
2022-08-08T05:37:21.089Z,3.72
2022-08-08T05:39:57.580Z,4.00
2022-08-08T05:42:43.876Z,3.95
2022-08-08T05:45:25.312Z,3.92
2022-08-08T05:48:09.923Z,4.00
2022-08-08T05:50:43.860Z,4.05
2022-08-08T05:54:25.285Z,3.45
2022-08-08T05:56:22.177Z,3.83
2022-08-08T05:59:58.802Z,3.28
2022-08-08T06:02:43.821Z,3.65
2022-08-08T06:05:35.081Z,3.30
2022-08-08T06:08:28.701Z,3.70
2022-08-08T06:11:16.727Z,3.80
2022-08-08T06:13:51.289Z,3.60
2022-08-08T06:16:30.343Z,4.10
2022-08-08T06:19:16.949Z,3.42
2022-08-08T06:21:57.216Z,3.60
2022-08-08T06:24:51.191Z,3.30
2022-08-08T06:27:43.736Z,3.88
2022-08-08T06:30:28.186Z,3.50
2022-08-08T06:33:05.699Z,3.80
2022-08-08T06:36:07.959Z,3.33
2022-08-08T06:38:49.019Z,3.47
2022-08-08T06:41:22.306Z,3.40
2022-08-08T06:43:59.197Z,3.53
2022-08-08T06:46:37.323Z,3.25
2022-08-08T06:49:13.547Z,3.38
2022-08-08T06:51:52.419Z,3.70
2022-08-08T06:54:28.603Z,3.97
2022-08-08T06:57:02.971Z,3.65
2022-08-08T07:00:02.552Z,4.22
2022-08-08T07:02:33.254Z,3.47
2022-08-08T07:05:12.003Z,3.80
2022-08-08T07:08:11.196Z,3.78
2022-08-08T07:10:50.836Z,3.73
2022-08-08T07:13:26.988Z,3.80
2022-08-08T07:16:12.051Z,2.80
2022-08-08T07:19:19.371Z,3.60
2022-08-08T07:22:12.004Z,3.40
2022-08-08T07:25:01.091Z,3.60
2022-08-08T07:27:47.145Z,2.90
2022-08-08T07:30:35.016Z,3.08
2022-08-08T07:33:07.724Z,2.88
2022-08-08T07:35:44.213Z,2.80
2022-08-08T07:38:20.927Z,2.97
2022-08-08T07:41:04.496Z,2.88
2022-08-08T07:43:41.921Z,2.92
2022-08-08T07:46:30.139Z,2.63
2022-08-08T07:49:12.191Z,2.47
2022-08-08T07:51:53.694Z,2.28
2022-08-08T07:54:42.562Z,2.40
2022-08-08T07:57:57.610Z,2.05
2022-08-08T08:00:43.453Z,2.22
2022-08-08T08:03:43.275Z,2.80
2022-08-08T08:06:22.767Z,2.08
2022-08-08T08:09:08.906Z,2.30
2022-08-08T08:11:52.637Z,3.00
2022-08-08T08:15:05.946Z,2.20
2022-08-08T08:17:48.210Z,2.67
2022-08-08T08:20:30.378Z,2.33
2022-08-08T08:23:06.570Z,2.10
2022-08-08T08:25:45.291Z,2.40
2022-08-08T08:28:24.351Z,1.63
2022-08-08T08:31:06.490Z,2.30
2022-08-08T08:33:40.291Z,2.40
2022-08-08T08:36:17.576Z,2.30
2022-08-08T08:38:54.151Z,2.75
2022-08-08T08:41:37.263Z,2.67
2022-08-08T08:44:14.049Z,2.53
2022-08-08T08:46:58.560Z,2.60
2022-08-08T08:49:34.605Z,2.58
2022-08-08T08:52:10.872Z,2.72
2022-08-08T08:54:43.413Z,2.88
2022-08-08T08:57:18.974Z,2.40
2022-08-08T09:00:00.221Z,2.20
2022-08-08T09:02:41.875Z,2.17
2022-08-08T09:05:48.875Z,2.30
2022-08-08T09:08:13.002Z,2.47
2022-08-08T09:10:51.666Z,2.03
2022-08-08T09:13:28.091Z,2.83
2022-08-08T09:16:03.468Z,2.40
2022-08-08T09:18:45.488Z,2.45
2022-08-08T09:21:56.922Z,2.28
2022-08-08T09:24:13.329Z,2.38
2022-08-08T09:26:49.773Z,2.15
2022-08-08T09:29:26.832Z,2.03
2022-08-08T09:32:14.391Z,2.05
2022-08-08T09:34:53.836Z,2.47
2022-08-08T09:37:58.370Z,2.08
2022-08-08T09:40:45.498Z,2.72
2022-08-08T09:44:04.087Z,2.78
2022-08-08T09:46:30.721Z,3.10
2022-08-08T09:49:41.431Z,2.97
2022-08-08T09:52:06.298Z,3.33
2022-08-08T09:54:47.409Z,2.63
2022-08-08T09:57:46.523Z,2.60
2022-08-08T10:00:37.769Z,2.70
2022-08-08T10:03:20.899Z,2.80
2022-08-08T10:05:53.789Z,2.40
2022-08-08T10:12:22.310Z,2.67
2022-08-08T10:14:05.859Z,2.75
2022-08-08T10:16:42.919Z,2.60
2022-08-08T10:19:18.771Z,2.75
2022-08-08T10:21:54.418Z,3.08
2022-08-08T10:24:28.560Z,4.03
2022-08-08T10:27:07.014Z,5.50
2022-08-08T10:30:07.070Z,4.65
2022-08-08T10:32:54.961Z,5.25
2022-08-08T10:36:08.371Z,5.13
2022-08-08T10:38:22.147Z,4.85
2022-08-08T10:40:56.758Z,4.50
2022-08-08T10:43:43.069Z,4.72
2022-08-08T10:46:30.241Z,4.88
2022-08-08T10:49:02.150Z,5.57
2022-08-08T10:51:47.299Z,5.25
2022-08-08T10:54:26.959Z,5.47
2022-08-08T10:57:03.847Z,5.97
2022-08-08T10:59:39.936Z,5.05
2022-08-08T11:02:13.346Z,5.97
2022-08-08T11:04:53.405Z,5.00
2022-08-08T11:07:40.652Z,5.47
2022-08-08T11:10:28.395Z,4.85
2022-08-08T11:13:28.638Z,5.20
2022-08-08T11:16:00.965Z,4.97
2022-08-08T11:18:40.162Z,5.00
2022-08-08T11:24:01.942Z,5.55
2022-08-08T11:26:56.789Z,5.85
2022-08-08T11:29:51.211Z,5.75
2022-08-08T11:32:29.566Z,6.28
2022-08-08T11:35:23.211Z,7.25
2022-08-08T11:38:35.600Z,8.90
2022-08-08T11:40:53.132Z,8.67
2022-08-08T11:43:39.431Z,8.40
2022-08-08T11:46:18.000Z,8.45
2022-08-08T11:48:50.978Z,7.90
2022-08-08T11:51:34.963Z,7.72
2022-08-08T11:54:32.256Z,8.15
2022-08-08T11:57:36.430Z,8.13
2022-08-08T12:00:10.544Z,7.53
2022-08-08T12:03:02.695Z,8.30
2022-08-08T12:05:38.887Z,7.97
2022-08-08T12:08:11.991Z,8.27
2022-08-08T12:10:51.985Z,8.02
2022-08-08T12:13:38.368Z,8.38
2022-08-08T12:16:30.802Z,9.18
2022-08-08T12:19:05.851Z,8.77
2022-08-08T12:22:00.086Z,8.43
2022-08-08T12:24:29.858Z,8.65
2022-08-08T12:27:01.761Z,9.60
2022-08-08T12:29:40.385Z,9.32
2022-08-08T12:32:20.149Z,8.95
2022-08-08T12:35:13.646Z,9.50
2022-08-08T12:38:02.912Z,9.23
2022-08-08T12:40:56.696Z,9.68
2022-08-08T12:43:47.841Z,9.07
2022-08-08T12:46:29.009Z,9.45
2022-08-08T12:52:00.206Z,10.27
2022-08-08T12:54:47.452Z,10.23
2022-08-08T12:57:28.056Z,9.95
2022-08-08T13:00:11.350Z,11.82
2022-08-08T13:02:53.172Z,10.77
2022-08-08T13:06:03.430Z,11.77
2022-08-08T13:08:33.351Z,11.63
2022-08-08T13:11:23.597Z,12.60
2022-08-08T13:14:18.639Z,11.77
2022-08-08T13:16:51.390Z,12.80
2022-08-08T13:19:27.221Z,14.02
2022-08-08T13:22:20.011Z,13.88
2022-08-08T13:24:56.840Z,13.98
2022-08-08T13:27:35.319Z,13.80
2022-08-08T13:30:09.059Z,12.80
2022-08-08T13:32:43.789Z,13.70
2022-08-08T13:35:24.954Z,14.85
2022-08-08T13:38:08.428Z,13.98
2022-08-08T13:40:45.965Z,13.98
2022-08-08T13:43:18.640Z,12.95
2022-08-08T13:45:52.514Z,13.73
2022-08-08T13:48:26.185Z,13.05
2022-08-08T13:54:00.246Z,12.57
2022-08-08T13:56:59.711Z,13.80
2022-08-08T13:59:47.924Z,13.63
2022-08-08T14:02:31.229Z,12.63
2022-08-08T14:05:20.382Z,12.02
2022-08-08T14:07:59.594Z,12.65
2022-08-08T14:10:37.274Z,12.30
2022-08-08T14:13:31.175Z,11.73
2022-08-08T14:16:16.702Z,11.48
2022-08-08T14:21:53.740Z,10.52
2022-08-08T14:24:35.707Z,9.80
2022-08-08T14:27:17.433Z,9.80
2022-08-08T14:30:18.423Z,9.43
2022-08-08T14:32:56.428Z,9.02
2022-08-08T14:35:36.111Z,8.30
2022-08-08T14:38:34.412Z,8.15
2022-08-08T14:41:45.515Z,7.63
2022-08-08T14:44:19.602Z,8.70
2022-08-08T14:47:01.243Z,7.35
2022-08-08T14:49:37.814Z,7.30
2022-08-08T14:52:29.040Z,7.50
2022-08-08T14:55:00.692Z,7.07
2022-08-08T14:58:00.878Z,7.45
2022-08-08T15:00:26.572Z,6.57
2022-08-08T15:03:14.317Z,6.90
2022-08-08T15:05:53.821Z,6.38
2022-08-08T15:08:38.408Z,6.10
2022-08-08T15:11:19.191Z,5.78
2022-08-08T15:14:00.784Z,6.32
2022-08-08T15:16:34.292Z,6.50
2022-08-08T15:19:07.102Z,5.90
2022-08-08T15:21:42.807Z,6.82
2022-08-08T15:24:16.838Z,6.07
2022-08-08T15:26:52.803Z,6.85
2022-08-08T15:29:25.964Z,6.82
2022-08-08T15:32:19.709Z,7.28
2022-08-08T15:34:50.595Z,7.50
2022-08-08T15:39:55.221Z,8.13
2022-08-08T15:42:33.167Z,8.10
2022-08-08T15:45:05.335Z,7.85
2022-08-08T15:47:37.097Z,7.97
2022-08-08T15:50:19.479Z,8.10
2022-08-08T15:52:54.695Z,7.55
2022-08-08T15:55:27.486Z,7.82
2022-08-08T16:00:31.469Z,7.10
2022-08-08T16:03:03.113Z,7.63
2022-08-08T16:05:53.212Z,7.03
2022-08-08T16:08:29.784Z,7.43
2022-08-08T16:13:14.269Z,6.80
2022-08-08T16:13:53.776Z,6.22
2022-08-08T16:18:58.281Z,6.25
2022-08-08T16:21:32.771Z,7.35
2022-08-08T16:24:10.094Z,6.50
2022-08-08T16:26:44.017Z,6.70
2022-08-08T16:29:37.057Z,6.70
2022-08-08T16:32:13.069Z,7.40
2022-08-08T16:34:52.278Z,6.82
2022-08-08T16:37:25.077Z,6.93
2022-08-08T16:40:02.914Z,7.20
2022-08-08T16:42:34.813Z,6.40
2022-08-08T16:45:11.450Z,7.53
2022-08-08T16:47:59.062Z,6.78
2022-08-08T16:50:30.774Z,6.90
2022-08-08T16:55:04.275Z,8.30
2022-08-08T16:55:57.729Z,7.67
2022-08-08T16:58:34.397Z,7.40
2022-08-08T17:01:09.155Z,7.40
2022-08-08T17:03:58.941Z,7.00
2022-08-08T17:06:36.823Z,6.90
2022-08-08T17:09:15.565Z,6.95
2022-08-08T17:11:54.565Z,7.10
2022-08-08T17:14:34.054Z,6.88
2022-08-08T17:17:41.600Z,7.43
2022-08-08T17:20:00.341Z,7.07
2022-08-08T17:22:39.265Z,6.50
2022-08-08T17:25:14.445Z,6.45
2022-08-08T17:27:48.450Z,6.68
2022-08-08T17:34:36.346Z,6.50
2022-08-08T17:36:09.242Z,6.83
2022-08-08T17:38:44.532Z,6.20
2022-08-08T17:41:16.241Z,5.72
2022-08-08T17:44:00.714Z,5.70
2022-08-08T17:46:40.841Z,6.20
2022-08-08T17:49:23.917Z,6.30
2022-08-08T17:51:56.830Z,6.25
2022-08-08T17:54:28.993Z,5.45
2022-08-08T17:57:01.602Z,5.38
2022-08-08T17:59:36.514Z,5.50
2022-08-08T18:02:21.569Z,4.50
2022-08-08T18:05:04.650Z,4.93
2022-08-08T18:08:01.790Z,5.03
2022-08-08T18:10:31.367Z,4.90
2022-08-08T18:13:07.505Z,5.50
2022-08-08T18:15:41.181Z,4.28
2022-08-08T18:18:28.461Z,4.80
2022-08-08T18:21:03.286Z,4.07
2022-08-08T18:23:42.119Z,4.60
2022-08-08T18:28:59.842Z,4.47
2022-08-08T18:31:33.371Z,4.15
2022-08-08T18:34:12.236Z,4.50
2022-08-08T18:36:57.813Z,4.22
2022-08-08T18:39:31.564Z,4.10
2022-08-08T18:42:04.218Z,4.43
2022-08-08T18:44:36.697Z,4.15
2022-08-08T18:47:08.361Z,4.72
2022-08-08T18:49:57.649Z,4.07
2022-08-08T18:52:36.864Z,4.53
2022-08-08T18:55:10.391Z,3.92
2022-08-08T18:57:45.608Z,3.88
2022-08-08T19:00:21.304Z,4.47
2022-08-08T19:03:01.611Z,4.40
2022-08-08T19:05:46.569Z,4.43
2022-08-08T19:08:29.308Z,5.07
2022-08-08T19:11:02.985Z,4.80
2022-08-08T19:13:57.027Z,4.45
2022-08-08T19:16:32.003Z,4.78
2022-08-08T19:19:13.503Z,4.70
2022-08-08T19:21:49.590Z,4.68
2022-08-08T19:24:38.901Z,4.43
2022-08-08T19:27:14.840Z,5.07
2022-08-08T19:29:46.804Z,4.78
2022-08-08T19:32:22.954Z,5.25
2022-08-08T19:34:55.319Z,5.22
2022-08-08T19:37:42.356Z,5.07
2022-08-08T19:40:16.611Z,4.70
2022-08-08T19:45:59.846Z,5.05
2022-08-08T19:48:30.492Z,5.07
2022-08-08T19:51:03.081Z,5.15
2022-08-08T19:53:53.624Z,4.72
2022-08-08T19:56:40.124Z,4.95
2022-08-08T19:59:13.143Z,4.80
2022-08-08T20:02:02.420Z,4.35
2022-08-08T20:04:36.970Z,4.35
2022-08-08T20:08:29.686Z,4.80
2022-08-08T20:10:02.937Z,4.13
2022-08-08T20:12:35.740Z,4.57
2022-08-08T20:15:14.612Z,6.10
2022-08-08T20:17:50.082Z,4.70
2022-08-08T20:20:24.052Z,4.70
2022-08-08T20:22:58.753Z,5.10
2022-08-08T20:25:35.930Z,5.50
2022-08-08T20:28:16.753Z,5.65
2022-08-08T20:30:56.328Z,6.60
2022-08-08T20:34:27.219Z,6.15
2022-08-08T20:36:23.499Z,6.23
2022-08-08T20:38:59.017Z,6.60
2022-08-08T20:41:33.808Z,6.68
2022-08-08T20:44:06.062Z,6.88
2022-08-08T20:46:37.867Z,7.22
2022-08-08T20:49:10.784Z,6.93
2022-08-08T20:51:45.359Z,7.30
2022-08-08T20:54:26.437Z,6.80
2022-08-08T20:57:16.533Z,7.40
2022-08-08T20:59:49.289Z,7.22
2022-08-08T21:02:25.776Z,7.15
2022-08-08T21:05:01.947Z,6.80
2022-08-08T21:07:47.247Z,6.97
2022-08-08T21:10:28.355Z,7.85
2022-08-08T21:13:01.946Z,6.60
2022-08-08T21:16:17.665Z,6.93
2022-08-08T21:18:28.025Z,7.22
2022-08-08T21:21:00.179Z,6.40
2022-08-08T21:23:58.931Z,6.10
2022-08-08T21:26:27.515Z,6.25
2022-08-08T21:29:02.420Z,5.35
2022-08-08T21:31:58.271Z,6.50
2022-08-08T21:34:29.985Z,6.28
2022-08-08T21:37:16.251Z,5.72
2022-08-08T21:39:57.198Z,6.18
2022-08-08T21:42:29.091Z,5.78
2022-08-08T21:48:20.426Z,5.38
2022-08-08T21:50:44.861Z,5.18
2022-08-08T21:54:31.443Z,6.47
2022-08-08T21:56:30.999Z,5.60
2022-08-08T21:59:05.673Z,5.43
2022-08-08T22:01:41.475Z,5.22
2022-08-08T22:04:14.010Z,5.13
2022-08-08T22:06:47.219Z,5.10
2022-08-08T22:09:19.894Z,4.97
2022-08-08T22:12:08.665Z,4.82
2022-08-08T22:14:42.678Z,4.90
2022-08-08T22:17:14.787Z,4.95
2022-08-08T22:20:10.575Z,4.57
2022-08-08T22:22:38.749Z,4.47
2022-08-08T22:25:19.591Z,5.00
2022-08-08T22:28:04.167Z,4.75
2022-08-08T22:30:51.151Z,4.32
2022-08-08T22:34:12.772Z,4.80
2022-08-08T22:36:19.983Z,4.82
2022-08-08T22:39:06.669Z,4.47
2022-08-08T22:41:39.307Z,4.10
2022-08-08T22:44:11.408Z,4.50
2022-08-08T22:46:44.985Z,4.55
2022-08-08T22:49:17.967Z,4.95
2022-08-08T22:51:54.097Z,5.20
2022-08-08T22:54:39.149Z,5.03
2022-08-08T22:57:20.272Z,4.53
2022-08-08T22:59:58.617Z,4.57
2022-08-08T23:02:32.486Z,5.60
2022-08-08T23:05:05.310Z,6.40
2022-08-08T23:07:51.276Z,6.22
2022-08-08T23:10:30.134Z,6.85
2022-08-08T23:13:01.716Z,6.80
2022-08-08T23:16:38.945Z,6.93
2022-08-08T23:18:29.595Z,6.93
2022-08-08T23:21:06.127Z,6.65
2022-08-08T23:23:48.780Z,6.40
2022-08-08T23:26:28.234Z,7.18
2022-08-08T23:29:00.590Z,7.18
2022-08-08T23:31:38.568Z,7.03
2022-08-08T23:34:17.788Z,6.85
2022-08-08T23:36:58.906Z,6.68
2022-08-08T23:39:41.817Z,6.77
2022-08-08T23:42:21.598Z,6.40
2022-08-08T23:44:53.375Z,6.65
2022-08-08T23:49:07.121Z,7.47
2022-08-08T23:50:30.116Z,7.05
2022-08-08T23:53:03.464Z,8.57
2022-08-08T23:55:38.332Z,12.88
2022-08-08T23:58:37.110Z,13.88
